createdAt,value
2019-06-07T00:01:20.811Z,95.00
2019-06-07T00:03:47.929Z,94.90
2019-06-07T00:06:21.355Z,95.10
2019-06-07T00:08:45.103Z,94.70
2019-06-07T00:11:16.507Z,94.60
2019-06-07T00:13:42.066Z,94.70
2019-06-07T00:16:11.909Z,94.60
2019-06-07T00:18:38.948Z,94.70
2019-06-07T00:21:08.937Z,94.60
2019-06-07T00:23:35.888Z,94.50
2019-06-07T00:26:03.690Z,94.30
2019-06-07T00:28:31.417Z,94.10
2019-06-07T00:30:59.066Z,94.00
2019-06-07T00:33:26.605Z,94.10
2019-06-07T00:35:54.168Z,94.10
2019-06-07T00:38:22.081Z,94.00
2019-06-07T00:40:49.945Z,94.00
2019-06-07T00:43:20.373Z,94.00
2019-06-07T00:45:47.125Z,94.10
2019-06-07T00:48:19.656Z,94.00
2019-06-07T00:50:44.263Z,94.00
2019-06-07T00:53:17.176Z,94.20
2019-06-07T00:55:41.197Z,94.20
2019-06-07T00:58:08.887Z,94.30
2019-06-07T01:00:36.890Z,94.50
2019-06-07T01:03:04.523Z,94.60
2019-06-07T01:05:32.082Z,95.00
2019-06-07T01:08:01.603Z,95.30
2019-06-07T01:10:52.156Z,95.60
2019-06-07T01:12:58.682Z,95.80
2019-06-07T01:15:29.273Z,95.80
2019-06-07T01:18:33.572Z,95.90
2019-06-07T01:20:27.583Z,95.90
2019-06-07T01:22:55.118Z,96.20
2019-06-07T01:25:26.127Z,96.30
2019-06-07T01:27:52.582Z,96.10
2019-06-07T01:30:24.115Z,95.70
2019-06-07T01:32:51.698Z,95.60
2019-06-07T01:35:21.409Z,95.70
2019-06-07T01:37:48.871Z,95.60
2019-06-07T01:40:20.066Z,95.60
2019-06-07T01:42:47.324Z,95.70
2019-06-07T01:45:15.185Z,95.70
2019-06-07T01:47:42.686Z,95.60
2019-06-07T01:50:10.510Z,95.50
2019-06-07T01:52:38.089Z,95.40
2019-06-07T01:55:05.936Z,95.40
2019-06-07T01:57:45.420Z,95.30
2019-06-07T02:00:03.532Z,95.30
2019-06-07T02:02:32.272Z,95.30
2019-06-07T02:04:59.909Z,95.30
2019-06-07T02:07:32.178Z,95.10
2019-06-07T02:09:56.972Z,95.40
2019-06-07T02:12:32.522Z,95.30
2019-06-07T02:14:53.822Z,94.90
2019-06-07T02:17:24.406Z,94.50
2019-06-07T02:19:50.755Z,94.30
2019-06-07T02:22:21.316Z,94.40
2019-06-07T02:25:33.889Z,94.50
2019-06-07T02:27:18.526Z,94.60
2019-06-07T02:29:45.983Z,94.90
2019-06-07T02:32:13.435Z,94.90
2019-06-07T02:34:40.956Z,95.10
2019-06-07T02:37:08.472Z,95.10
2019-06-07T02:39:40.242Z,95.10
2019-06-07T02:42:05.387Z,95.30
2019-06-07T02:44:38.536Z,95.30
2019-06-07T02:47:02.363Z,95.30
2019-06-07T02:49:36.245Z,95.30
2019-06-07T02:51:59.146Z,95.40
2019-06-07T02:54:27.454Z,95.10
2019-06-07T02:56:58.992Z,95.20
2019-06-07T02:59:52.779Z,95.30
2019-06-07T03:01:55.021Z,95.30
2019-06-07T03:04:27.182Z,95.30
2019-06-07T03:06:56.349Z,95.20
2019-06-07T03:09:26.219Z,95.20
2019-06-07T03:11:56.220Z,95.00
2019-06-07T03:14:26.006Z,94.60
2019-06-07T03:17:01.760Z,94.40
2019-06-07T03:19:37.898Z,94.00
2019-06-07T03:22:05.166Z,93.90
2019-06-07T03:24:36.251Z,94.00
2019-06-07T03:29:36.561Z,94.30
2019-06-07T03:32:03.676Z,94.40
2019-06-07T03:34:34.214Z,94.40
2019-06-07T03:37:00.500Z,94.40
2019-06-07T03:39:29.290Z,94.40
2019-06-07T03:42:06.226Z,94.30
2019-06-07T03:44:28.633Z,94.10
2019-06-07T03:46:56.064Z,93.40
2019-06-07T03:49:24.036Z,92.80
2019-06-07T03:51:51.536Z,93.10
2019-06-07T03:54:18.960Z,93.10
2019-06-07T03:56:46.445Z,93.30
2019-06-07T03:59:13.886Z,93.60
2019-06-07T04:01:41.441Z,93.70
2019-06-07T04:04:08.933Z,93.30
2019-06-07T04:06:39.479Z,93.20
2019-06-07T04:09:06.673Z,93.00
2019-06-07T04:11:35.133Z,92.90
2019-06-07T04:14:03.754Z,93.20
2019-06-07T04:16:34.560Z,93.30
2019-06-07T04:19:00.689Z,93.50
2019-06-07T04:21:29.754Z,93.70
2019-06-07T04:23:57.607Z,94.10
2019-06-07T04:26:25.320Z,94.40
2019-06-07T04:29:31.475Z,94.40
2019-06-07T04:31:22.638Z,94.30
2019-06-07T04:33:50.099Z,94.30
2019-06-07T04:36:18.172Z,94.40
2019-06-07T04:38:47.053Z,94.30
2019-06-07T04:41:16.236Z,94.60
2019-06-07T04:43:45.818Z,94.70
2019-06-07T04:46:16.773Z,94.50
2019-06-07T04:48:46.040Z,94.30
2019-06-07T04:51:14.103Z,93.90
2019-06-07T04:53:43.352Z,93.60
2019-06-07T04:56:12.293Z,93.20
2019-06-07T04:58:49.138Z,92.90
2019-06-07T05:01:27.305Z,92.30
2019-06-07T05:03:46.523Z,91.50
2019-06-07T05:06:14.158Z,90.90
2019-06-07T05:08:43.558Z,90.50
2019-06-07T05:11:11.262Z,90.90
2019-06-07T05:13:41.438Z,90.60
2019-06-07T05:16:08.247Z,90.30
2019-06-07T05:18:39.642Z,89.40
2019-06-07T05:21:05.112Z,88.80
2019-06-07T05:26:02.111Z,88.60
2019-06-07T05:28:30.035Z,88.60
2019-06-07T05:31:04.638Z,88.60
2019-06-07T05:33:28.348Z,86.80
2019-06-07T05:35:56.046Z,87.70
2019-06-07T05:38:23.526Z,87.90
2019-06-07T05:40:51.744Z,83.80
2019-06-07T05:43:26.852Z,84.30
2019-06-07T05:45:54.395Z,83.40
2019-06-07T05:48:23.261Z,83.40
2019-06-07T05:50:57.061Z,84.70
2019-06-07T05:53:20.273Z,85.60
2019-06-07T05:55:47.943Z,84.00
2019-06-07T05:58:15.498Z,84.90
2019-06-07T06:00:44.576Z,85.80
2019-06-07T06:03:12.555Z,81.90
2019-06-07T06:05:45.767Z,81.70
2019-06-07T06:08:09.580Z,81.50
2019-06-07T06:10:39.630Z,81.90
2019-06-07T06:13:07.594Z,78.00
2019-06-07T06:15:45.320Z,76.70
2019-06-07T06:18:05.292Z,75.80
2019-06-07T06:20:47.703Z,75.20
2019-06-07T06:23:02.384Z,76.10
2019-06-07T06:25:33.184Z,75.80
2019-06-07T06:28:12.426Z,76.70
2019-06-07T06:30:28.932Z,78.60
2019-06-07T06:32:58.540Z,74.30
2019-06-07T06:35:25.774Z,70.40
2019-06-07T06:37:53.619Z,71.80
2019-06-07T06:40:23.311Z,74.60
2019-06-07T06:42:50.798Z,73.50
2019-06-07T06:45:18.427Z,74.10
2019-06-07T06:47:48.836Z,69.40
2019-06-07T06:50:15.872Z,68.30
2019-06-07T06:52:46.099Z,71.70
2019-06-07T06:55:13.171Z,67.90
2019-06-07T06:57:41.809Z,69.20
2019-06-07T07:00:10.209Z,65.90
2019-06-07T07:03:27.033Z,65.10
2019-06-07T07:05:08.937Z,65.90
2019-06-07T07:07:36.708Z,64.80
2019-06-07T07:10:06.622Z,64.20
2019-06-07T07:12:35.492Z,65.00
2019-06-07T07:15:04.507Z,65.50
2019-06-07T07:17:50.814Z,62.70
2019-06-07T07:20:01.700Z,61.40
2019-06-07T07:22:29.488Z,60.70
2019-06-07T07:25:00.165Z,61.80
2019-06-07T07:27:27.785Z,62.50
2019-06-07T07:30:34.258Z,62.90
2019-06-07T07:32:25.857Z,62.70
2019-06-07T07:35:00.009Z,65.70
2019-06-07T07:37:23.028Z,66.60
2019-06-07T07:39:54.263Z,63.70
2019-06-07T07:42:21.723Z,62.30
2019-06-07T07:44:53.275Z,59.20
2019-06-07T07:47:18.986Z,59.60
2019-06-07T07:49:48.360Z,59.80
2019-06-07T07:52:16.091Z,62.30
2019-06-07T07:54:44.278Z,59.50
2019-06-07T07:57:11.877Z,59.50
2019-06-07T07:59:44.034Z,61.00
2019-06-07T08:02:08.812Z,59.60
2019-06-07T08:05:12.873Z,58.90
2019-06-07T08:07:05.986Z,59.60
2019-06-07T08:09:33.545Z,57.70
2019-06-07T08:12:02.661Z,57.20
2019-06-07T08:14:31.318Z,61.60
2019-06-07T08:16:59.295Z,60.90
2019-06-07T08:19:27.215Z,57.70
2019-06-07T08:21:55.688Z,56.60
2019-06-07T08:24:23.312Z,57.40
2019-06-07T08:27:12.510Z,57.20
2019-06-07T08:29:20.170Z,54.30
2019-06-07T08:31:48.306Z,54.60
2019-06-07T08:34:16.141Z,55.50
2019-06-07T08:36:43.697Z,57.70
2019-06-07T08:39:11.234Z,54.30
2019-06-07T08:41:53.497Z,55.80
2019-06-07T08:44:22.770Z,53.20
2019-06-07T08:46:37.903Z,52.20
2019-06-07T08:49:05.514Z,53.70
2019-06-07T08:51:33.122Z,52.30
2019-06-07T08:54:21.088Z,52.60
2019-06-07T08:56:30.302Z,54.90
2019-06-07T08:59:03.170Z,54.60
2019-06-07T09:01:27.453Z,51.90
2019-06-07T09:04:00.177Z,54.80
2019-06-07T09:07:01.888Z,51.70
2019-06-07T09:08:57.765Z,53.40
2019-06-07T09:11:24.775Z,55.10
2019-06-07T09:13:54.528Z,53.70
2019-06-07T09:16:22.164Z,51.10
2019-06-07T09:18:49.675Z,51.30
2019-06-07T09:21:17.276Z,51.10
2019-06-07T09:23:44.794Z,50.00
2019-06-07T09:26:18.270Z,50.70
2019-06-07T09:28:42.484Z,49.00
2019-06-07T09:31:12.490Z,52.90
2019-06-07T09:33:39.777Z,51.10
2019-06-07T09:36:12.347Z,49.40
2019-06-07T09:38:36.956Z,47.60
2019-06-07T09:41:06.170Z,49.60
2019-06-07T09:46:09.684Z,46.50
2019-06-07T09:49:12.261Z,48.20
2019-06-07T09:51:09.767Z,45.80
2019-06-07T09:53:32.053Z,48.40
2019-06-07T09:56:05.658Z,46.10
2019-06-07T09:58:51.074Z,45.30
2019-06-07T10:01:04.467Z,44.90
2019-06-07T10:03:30.146Z,43.60
2019-06-07T10:05:57.971Z,42.70
2019-06-07T10:09:42.410Z,45.50
2019-06-07T10:10:58.458Z,44.60
2019-06-07T10:13:26.030Z,43.60
2019-06-07T10:15:54.738Z,44.60
2019-06-07T10:18:22.238Z,43.50
2019-06-07T10:20:49.810Z,41.80
2019-06-07T10:23:17.272Z,42.60
2019-06-07T10:25:44.869Z,44.00
2019-06-07T10:28:12.380Z,45.00
2019-06-07T10:30:39.969Z,44.00
2019-06-07T10:33:08.580Z,41.40
2019-06-07T10:35:36.404Z,42.30
2019-06-07T10:38:04.585Z,39.40
2019-06-07T10:40:33.408Z,40.00
2019-06-07T10:43:01.261Z,41.40
2019-06-07T10:45:29.010Z,43.60
2019-06-07T10:47:56.598Z,42.10
2019-06-07T10:50:24.276Z,41.10
2019-06-07T10:52:51.870Z,44.70
2019-06-07T10:55:19.453Z,41.50
2019-06-07T10:57:46.988Z,42.40
2019-06-07T11:00:15.419Z,43.60
2019-06-07T11:02:42.978Z,42.00
2019-06-07T11:05:12.285Z,41.10
2019-06-07T11:07:40.411Z,40.80
2019-06-07T11:10:14.988Z,39.70
2019-06-07T11:12:37.742Z,39.50
2019-06-07T11:15:06.623Z,40.30
2019-06-07T11:17:34.438Z,38.60
2019-06-07T11:20:02.239Z,39.10
2019-06-07T11:22:30.025Z,38.80
2019-06-07T11:24:57.619Z,42.30
2019-06-07T11:27:25.135Z,40.00
2019-06-07T11:29:52.651Z,38.80
2019-06-07T11:32:23.045Z,39.50
2019-06-07T11:34:50.555Z,39.70
2019-06-07T11:37:19.149Z,40.30
2019-06-07T11:39:46.726Z,38.00
2019-06-07T11:42:14.284Z,37.60
2019-06-07T11:44:55.749Z,39.20
2019-06-07T11:47:12.466Z,39.70
2019-06-07T11:49:40.276Z,37.60
2019-06-07T11:52:07.758Z,37.10
2019-06-07T11:54:35.296Z,36.60
2019-06-07T11:57:04.170Z,35.30
2019-06-07T11:59:31.755Z,34.10
2019-06-07T12:01:59.222Z,36.00
2019-06-07T12:04:34.524Z,35.60
2019-06-07T12:06:57.285Z,39.10
2019-06-07T12:09:27.969Z,36.00
2019-06-07T12:11:54.262Z,37.10
2019-06-07T12:14:21.826Z,34.80
2019-06-07T12:16:51.361Z,37.60
2019-06-07T12:19:19.802Z,33.60
2019-06-07T12:21:47.573Z,34.10
2019-06-07T12:24:16.154Z,33.10
2019-06-07T12:26:44.240Z,34.80
2019-06-07T12:29:12.814Z,34.10
2019-06-07T12:31:40.537Z,33.00
2019-06-07T12:34:08.023Z,32.80
2019-06-07T12:36:35.631Z,36.30
2019-06-07T12:39:05.717Z,35.40
2019-06-07T12:41:33.398Z,32.70
2019-06-07T12:44:00.882Z,33.30
2019-06-07T12:46:28.772Z,32.50
2019-06-07T12:48:56.291Z,32.40
2019-06-07T12:51:23.829Z,32.50
2019-06-07T12:53:51.303Z,32.10
2019-06-07T12:56:19.804Z,33.70
2019-06-07T12:58:47.327Z,33.30
2019-06-07T13:01:15.948Z,34.50
2019-06-07T13:03:43.565Z,34.10
2019-06-07T13:06:11.535Z,34.20
2019-06-07T13:08:39.084Z,33.70
2019-06-07T13:11:16.095Z,33.30
2019-06-07T13:13:36.164Z,33.00
2019-06-07T13:16:03.843Z,31.00
2019-06-07T13:18:31.604Z,31.60
2019-06-07T13:20:59.088Z,31.20
2019-06-07T13:23:29.005Z,33.30
2019-06-07T13:25:56.761Z,31.20
2019-06-07T13:28:24.736Z,31.90
2019-06-07T13:30:52.414Z,34.80
2019-06-07T13:33:21.516Z,36.50
2019-06-07T13:35:49.406Z,32.50
2019-06-07T13:38:26.355Z,31.50
2019-06-07T13:40:57.423Z,33.40
2019-06-07T13:43:25.762Z,30.90
2019-06-07T13:45:53.421Z,31.80
2019-06-07T13:48:21.179Z,32.50
2019-06-07T13:50:48.821Z,31.00
2019-06-07T13:53:16.385Z,32.20
2019-06-07T13:55:43.953Z,32.50
2019-06-07T13:58:11.607Z,35.40
2019-06-07T14:00:39.104Z,32.20
2019-06-07T14:03:06.714Z,32.80
2019-06-07T14:05:34.223Z,32.80
2019-06-07T14:08:01.676Z,32.70
2019-06-07T14:10:29.625Z,31.80
2019-06-07T14:12:57.190Z,31.00
2019-06-07T14:15:25.186Z,30.90
2019-06-07T14:17:54.024Z,31.30
2019-06-07T14:20:26.664Z,32.50
2019-06-07T14:22:54.277Z,31.30
2019-06-07T14:25:23.054Z,30.10
2019-06-07T14:27:50.766Z,31.60
2019-06-07T14:30:21.804Z,32.40
2019-06-07T14:32:50.545Z,33.00
2019-06-07T14:35:18.578Z,33.70
2019-06-07T14:37:46.547Z,32.10
2019-06-07T14:40:14.671Z,33.70
2019-06-07T14:42:42.263Z,31.00
2019-06-07T14:45:10.439Z,31.60
2019-06-07T14:47:39.017Z,30.40
2019-06-07T14:50:06.869Z,30.70
2019-06-07T14:52:35.122Z,31.60
2019-06-07T14:55:04.286Z,30.70
2019-06-07T14:57:33.353Z,29.80
2019-06-07T15:00:10.408Z,30.60
2019-06-07T15:02:34.382Z,32.80
2019-06-07T15:05:00.337Z,32.10
2019-06-07T15:07:28.658Z,30.40
2019-06-07T15:09:56.434Z,30.20
2019-06-07T15:12:25.345Z,30.70
2019-06-07T15:14:53.526Z,31.60
2019-06-07T15:17:20.982Z,32.80
2019-06-07T15:19:49.609Z,31.60
2019-06-07T15:22:17.265Z,30.40
2019-06-07T15:24:44.926Z,30.10
2019-06-07T15:27:12.528Z,30.20
2019-06-07T15:29:40.032Z,32.40
2019-06-07T15:32:07.539Z,29.40
2019-06-07T15:34:36.339Z,30.10
2019-06-07T15:37:03.974Z,29.50
2019-06-07T15:39:32.573Z,29.40
2019-06-07T15:42:00.299Z,29.30
2019-06-07T15:44:29.094Z,29.60
2019-06-07T15:46:59.006Z,29.60
2019-06-07T15:49:26.504Z,29.20
2019-06-07T15:51:54.142Z,29.60
2019-06-07T15:54:21.853Z,29.10
2019-06-07T15:56:49.450Z,29.00
2019-06-07T15:59:17.053Z,28.90
2019-06-07T16:01:44.673Z,28.50
2019-06-07T16:04:12.270Z,28.40
2019-06-07T16:06:40.582Z,28.90
2019-06-07T16:09:08.253Z,29.50
2019-06-07T16:11:38.912Z,30.60
2019-06-07T16:14:06.640Z,31.00
2019-06-07T16:16:35.027Z,31.00
2019-06-07T16:19:02.742Z,29.50
2019-06-07T16:21:30.241Z,29.80
2019-06-07T16:23:57.927Z,30.20
2019-06-07T16:26:25.507Z,30.60
2019-06-07T16:28:52.951Z,29.40
2019-06-07T16:31:20.403Z,31.00
2019-06-07T16:33:47.915Z,31.30
2019-06-07T16:36:15.330Z,31.20
2019-06-07T16:38:42.906Z,30.90
2019-06-07T16:41:10.348Z,31.60
2019-06-07T16:43:38.555Z,30.70
2019-06-07T16:46:06.260Z,32.20
2019-06-07T16:48:36.858Z,32.20
2019-06-07T16:51:04.353Z,32.10
2019-06-07T16:53:31.903Z,32.20
2019-06-07T16:55:59.386Z,33.40
2019-06-07T16:58:26.909Z,33.70
2019-06-07T17:00:54.462Z,33.00
2019-06-07T17:03:21.998Z,34.40
2019-06-07T17:05:50.578Z,38.00
2019-06-07T17:08:18.514Z,42.60
2019-06-07T17:10:46.413Z,46.40
2019-06-07T17:13:13.997Z,51.10
2019-06-07T17:15:42.686Z,55.10
2019-06-07T17:18:10.390Z,60.90
2019-06-07T17:20:39.016Z,64.60
2019-06-07T17:23:06.675Z,66.40
2019-06-07T17:25:34.323Z,71.30
2019-06-07T17:28:01.862Z,71.70
2019-06-07T17:30:29.670Z,73.00
2019-06-07T17:32:59.429Z,71.80
2019-06-07T17:35:26.787Z,69.40
2019-06-07T17:37:54.284Z,72.00
2019-06-07T17:40:21.952Z,70.70
2019-06-07T17:42:50.900Z,69.20
2019-06-07T17:45:18.807Z,66.10
2019-06-07T17:47:47.695Z,66.40
2019-06-07T17:50:15.580Z,63.30
2019-06-07T17:52:43.791Z,64.40
2019-06-07T17:55:11.974Z,65.70
2019-06-07T17:57:39.704Z,66.80
2019-06-07T18:00:27.661Z,67.40
2019-06-07T18:02:38.060Z,70.70
2019-06-07T18:05:05.807Z,70.00
2019-06-07T18:07:34.519Z,72.20
2019-06-07T18:10:02.511Z,73.30
2019-06-07T18:12:30.435Z,73.50
2019-06-07T18:14:59.131Z,73.50
2019-06-07T18:17:34.561Z,71.80
2019-06-07T18:19:56.280Z,69.10
2019-06-07T18:22:23.897Z,69.20
2019-06-07T18:24:52.712Z,69.20
2019-06-07T18:27:20.551Z,68.30
2019-06-07T18:29:48.584Z,67.20
2019-06-07T18:32:16.239Z,65.70
2019-06-07T18:34:43.725Z,66.60
2019-06-07T18:37:11.366Z,65.70
2019-06-07T18:39:39.068Z,66.10
2019-06-07T18:42:06.711Z,66.10
2019-06-07T18:44:34.220Z,62.00
2019-06-07T18:47:01.699Z,61.40
2019-06-07T18:49:29.380Z,61.60
2019-06-07T18:52:16.456Z,61.00
2019-06-07T18:54:44.021Z,61.00
2019-06-07T18:57:12.451Z,60.30
2019-06-07T18:59:40.191Z,61.00
2019-06-07T19:02:07.840Z,61.80
2019-06-07T19:04:35.550Z,60.90
2019-06-07T19:07:03.283Z,61.00
2019-06-07T19:09:30.877Z,58.40
2019-06-07T19:11:59.034Z,58.40
2019-06-07T19:14:36.600Z,57.80
2019-06-07T19:16:57.557Z,60.10
2019-06-07T19:19:25.336Z,59.00
2019-06-07T19:21:54.007Z,58.90
2019-06-07T19:24:22.189Z,58.90
2019-06-07T19:26:50.549Z,57.80
2019-06-07T19:29:18.257Z,58.70
2019-06-07T19:31:45.866Z,58.10
2019-06-07T19:34:13.439Z,57.40
2019-06-07T19:36:48.716Z,57.40
2019-06-07T19:39:10.664Z,58.90
2019-06-07T19:41:41.274Z,58.70
2019-06-07T19:44:09.045Z,58.40
2019-06-07T19:46:36.622Z,57.70
2019-06-07T19:49:04.581Z,57.70
2019-06-07T19:51:32.150Z,57.50
2019-06-07T19:53:59.741Z,57.50
2019-06-07T19:56:27.417Z,59.20
2019-06-07T19:58:55.543Z,56.40
2019-06-07T20:01:23.280Z,56.60
2019-06-07T20:03:50.826Z,58.00
2019-06-07T20:06:18.505Z,58.00
2019-06-07T20:08:46.233Z,57.70
2019-06-07T20:11:45.638Z,57.50
2019-06-07T20:14:16.394Z,56.00
2019-06-07T20:16:44.099Z,56.90
2019-06-07T20:19:11.809Z,56.40
2019-06-07T20:21:39.402Z,56.40
2019-06-07T20:24:25.947Z,56.30
2019-06-07T20:26:36.370Z,56.40
2019-06-07T20:29:04.116Z,56.70
2019-06-07T20:31:31.901Z,58.00
2019-06-07T20:34:00.601Z,57.50
2019-06-07T20:36:28.345Z,57.50
2019-06-07T20:38:55.966Z,58.00
2019-06-07T20:41:23.564Z,58.30
2019-06-07T20:43:51.018Z,58.10
2019-06-07T20:46:18.645Z,58.40
2019-06-07T20:48:46.369Z,58.60
2019-06-07T20:51:14.019Z,58.40
2019-06-07T20:53:41.617Z,58.70
2019-06-07T20:56:09.358Z,58.60
2019-06-07T20:58:37.025Z,59.00
2019-06-07T21:01:04.858Z,59.60
2019-06-07T21:03:32.396Z,59.90
2019-06-07T21:06:01.268Z,59.00
2019-06-07T21:08:29.007Z,60.30
2019-06-07T21:10:56.619Z,61.80
2019-06-07T21:13:24.277Z,60.10
2019-06-07T21:15:51.951Z,60.10
2019-06-07T21:18:20.202Z,62.00
2019-06-07T21:20:47.931Z,62.20
2019-06-07T21:23:15.490Z,62.70
2019-06-07T21:25:42.952Z,62.20
2019-06-07T21:28:11.444Z,62.20
2019-06-07T21:30:39.237Z,63.30
2019-06-07T21:33:07.645Z,59.90
2019-06-07T21:35:35.434Z,60.90
2019-06-07T21:38:03.929Z,62.50
2019-06-07T21:40:31.799Z,64.00
2019-06-07T21:42:59.680Z,63.80
2019-06-07T21:45:27.340Z,65.10
2019-06-07T21:47:54.904Z,66.10
2019-06-07T21:50:22.563Z,67.40
2019-06-07T21:52:50.203Z,68.30
2019-06-07T21:55:19.027Z,70.00
2019-06-07T21:57:46.702Z,69.80
2019-06-07T22:00:16.829Z,70.70
2019-06-07T22:02:46.437Z,67.00
2019-06-07T22:05:14.442Z,65.70
2019-06-07T22:07:42.114Z,67.20
2019-06-07T22:10:10.117Z,69.60
2019-06-07T22:12:38.239Z,70.40
2019-06-07T22:15:24.701Z,70.70
2019-06-07T22:17:36.051Z,71.30
2019-06-07T22:20:06.376Z,72.40
2019-06-07T22:22:34.206Z,70.90
2019-06-07T22:25:01.731Z,73.20
2019-06-07T22:27:29.509Z,75.60
2019-06-07T22:29:57.035Z,73.20
2019-06-07T22:32:24.720Z,75.60
2019-06-07T22:34:52.353Z,74.10
2019-06-07T22:37:23.433Z,76.10
2019-06-07T22:39:49.356Z,77.80
2019-06-07T22:42:16.919Z,76.90
2019-06-07T22:44:44.509Z,78.90
2019-06-07T22:47:12.124Z,79.30
2019-06-07T22:49:39.934Z,78.90
2019-06-07T22:52:09.381Z,80.40
2019-06-07T22:54:36.798Z,79.90
2019-06-07T22:57:11.892Z,78.70
2019-06-07T22:59:39.646Z,80.00
2019-06-07T23:02:08.338Z,80.40
2019-06-07T23:04:36.971Z,80.20
2019-06-07T23:07:04.473Z,79.30
2019-06-07T23:09:32.434Z,81.50
2019-06-07T23:12:00.114Z,82.50
2019-06-07T23:14:28.073Z,81.90
2019-06-07T23:16:56.355Z,82.10
2019-06-07T23:19:24.195Z,81.50
2019-06-07T23:21:51.946Z,82.10
2019-06-07T23:24:20.141Z,83.40
2019-06-07T23:26:50.128Z,83.80
2019-06-07T23:29:18.639Z,84.10
2019-06-07T23:31:46.313Z,83.80
2019-06-07T23:34:14.706Z,83.60
2019-06-07T23:36:43.187Z,83.40
2019-06-07T23:39:10.923Z,84.70
2019-06-07T23:41:39.792Z,84.50
2019-06-07T23:44:07.363Z,83.80
2019-06-07T23:46:34.858Z,83.60
2019-06-07T23:49:02.351Z,83.60
2019-06-07T23:51:29.845Z,84.10
2019-06-07T23:53:57.307Z,82.80
2019-06-07T23:56:24.785Z,83.60
2019-06-07T23:58:52.448Z,83.20
